Time,TemperatureF,DewpointF,PressureIn,WindDirection,WindDirectionDegrees,WindSpeedMPH,WindSpeedGustMPH,Humidity,HourlyPrecipIn,Conditions,Clouds,dailyrainin,SoftwareType,DateUTC
2013-02-09 00:00:00,42.5,39.8,30.00,NNW,342,0.0,1.0,90,0.00,,---,0.27,VWS V14.00,2013-02-09 08:00:00,
2013-02-09 00:30:00,42.3,39.3,30.00,NNW,344,0.0,0.0,89,0.00,,---,0.00,VWS V14.00,2013-02-09 08:30:00,
2013-02-09 01:00:00,42.1,39.1,30.00,North,355,0.0,1.0,89,0.00,,---,0.00,VWS V14.00,2013-02-09 09:00:00,
2013-02-09 01:30:00,41.9,38.9,30.01,North,355,0.0,1.0,89,0.00,,---,0.00,VWS V14.00,2013-02-09 09:30:00,
2013-02-09 02:00:00,41.6,38.9,30.00,North,355,0.0,1.0,90,0.00,,---,0.00,VWS V14.00,2013-02-09 10:00:00,
2013-02-09 02:30:00,41.5,38.5,30.01,North,355,0.0,1.0,89,0.00,,---,0.00,VWS V14.00,2013-02-09 10:30:00,
2013-02-09 03:00:00,41.4,38.4,30.01,North,5,0.0,1.0,89,0.00,,---,0.00,VWS V14.00,2013-02-09 11:00:00,
2013-02-09 03:30:00,40.9,37.9,30.01,NNE,12,0.0,1.0,89,0.00,,---,0.00,VWS V14.00,2013-02-09 11:30:00,
2013-02-09 04:00:00,40.7,37.7,30.02,NNE,12,0.0,1.0,89,0.00,,---,0.00,VWS V14.00,2013-02-09 12:00:00,
2013-02-09 04:30:00,40.7,37.7,30.02,NNE,12,0.0,0.0,89,0.00,,---,0.00,VWS V14.00,2013-02-09 12:30:00,
2013-02-09 05:00:00,40.6,37.6,30.02,NNE,12,0.0,1.0,89,0.00,,---,0.00,VWS V14.00,2013-02-09 13:00:00,
2013-02-09 05:30:00,39.7,37.0,30.04,NNE,15,1.0,1.0,90,0.00,,---,0.00,VWS V14.00,2013-02-09 13:30:00,
2013-02-09 05:31:00,40.1,37.4,30.03,NNE,13,0.0,1.0,90,0.00,,---,0.00,VWS V14.00,2013-02-09 13:31:00,
2013-02-09 06:00:00,40.0,37.6,30.06,NNE,15,0.0,1.0,91,0.00,,---,0.00,VWS V14.00,2013-02-09 14:00:00,
2013-02-09 06:01:00,40.1,37.4,30.04,NNE,13,0.0,1.0,90,0.00,,---,0.00,VWS V14.00,2013-02-09 14:01:00,
2013-02-09 06:30:00,39.7,37.0,30.04,NNE,15,1.0,1.0,90,0.00,,---,0.00,VWS V14.00,2013-02-09 14:30:00,
2013-02-09 07:00:00,40.0,37.6,30.06,NNE,15,0.0,1.0,91,0.00,,---,0.00,VWS V14.00,2013-02-09 15:00:00,
2013-02-09 07:30:00,40.0,37.0,30.07,NE,36,0.0,1.0,89,0.00,,---,0.00,VWS V14.00,2013-02-09 15:30:00,
2013-02-09 08:00:00,43.5,39.6,30.09,NE,48,0.0,1.0,86,0.00,,---,0.00,VWS V14.00,2013-02-09 16:00:00,
2013-02-09 08:30:00,46.3,40.8,30.10,NE,48,0.0,1.0,81,0.00,,---,0.00,VWS V14.00,2013-02-09 16:30:00,
2013-02-09 09:00:00,51.0,43.7,30.10,ENE,71,1.0,3.0,76,0.00,,---,0.00,VWS V14.00,2013-02-09 17:00:00,
2013-02-09 09:30:00,53.5,45.1,30.11,East,92,3.0,5.0,73,0.00,,---,0.00,VWS V14.00,2013-02-09 17:30:00,
2013-02-09 10:00:00,55.1,45.9,30.12,East,85,0.0,5.0,71,0.00,,---,0.00,VWS V14.00,2013-02-09 18:00:00,
2013-02-09 10:30:00,54.4,44.5,30.12,SSE,165,2.0,5.0,69,0.00,,---,0.00,VWS V14.00,2013-02-09 18:30:00,
2013-02-09 11:00:00,55.7,46.1,30.12,South,185,3.0,5.0,70,0.00,,---,0.00,VWS V14.00,2013-02-09 19:00:00,
2013-02-09 11:30:00,55.8,46.2,30.12,SSE,161,2.0,4.0,70,0.00,,---,0.00,VWS V14.00,2013-02-09 19:30:00,
2013-02-09 12:00:00,56.2,43.8,30.11,SSE,168,0.0,4.0,63,0.01,,---,0.01,VWS V14.00,2013-02-09 20:00:00,
2013-02-09 12:30:00,55.9,43.9,30.10,South,183,2.0,5.0,64,0.01,,---,0.01,VWS V14.00,2013-02-09 20:30:00,
2013-02-09 13:00:00,56.2,44.6,30.10,South,178,1.0,4.0,65,0.01,,---,0.01,VWS V14.00,2013-02-09 21:00:00,
2013-02-09 13:30:00,56.8,43.5,30.09,South,178,0.0,3.0,61,0.00,,---,0.01,VWS V14.00,2013-02-09 21:30:00,
2013-02-09 14:00:00,57.4,44.9,30.09,South,179,0.0,3.0,63,0.00,,---,0.01,VWS V14.00,2013-02-09 22:00:00,
2013-02-09 14:30:00,58.5,44.7,30.09,South,179,0.0,2.0,60,0.00,,---,0.01,VWS V14.00,2013-02-09 22:30:00,
2013-02-09 15:00:00,58.6,45.2,30.09,South,179,0.0,2.0,61,0.00,,---,0.01,VWS V14.00,2013-02-09 23:00:00,
2013-02-09 15:30:00,55.4,43.4,30.09,West,272,0.0,4.0,64,0.00,,---,0.01,VWS V14.00,2013-02-09 23:30:00,
2013-02-09 15:31:00,57.5,44.6,30.09,South,179,1.0,2.0,62,0.00,,---,0.01,VWS V14.00,2013-02-09 23:31:00,
2013-02-09 16:00:00,55.0,43.5,30.09,West,272,0.0,3.0,65,0.00,,---,0.01,VWS V14.00,2013-02-10 00:00:00,
2013-02-09 16:01:00,56.2,43.4,30.09,West,271,0.0,3.0,62,0.00,,---,0.01,VWS V14.00,2013-02-10 00:01:00,
2013-02-09 16:30:00,55.4,43.4,30.09,West,272,0.0,4.0,64,0.00,,---,0.01,VWS V14.00,2013-02-10 00:30:00,
2013-02-09 17:00:00,52.6,43.8,30.10,West,272,0.0,0.0,72,0.00,,---,0.01,VWS V14.00,2013-02-10 01:00:00,
2013-02-09 17:01:00,55.0,43.5,30.09,West,272,0.0,3.0,65,0.00,,---,0.01,VWS V14.00,2013-02-10 01:01:00,
2013-02-09 17:30:00,53.1,43.6,30.09,West,272,0.0,1.0,70,0.00,,---,0.01,VWS V14.00,2013-02-10 01:30:00,
2013-02-09 18:00:00,52.6,43.8,30.10,West,272,0.0,0.0,72,0.00,,---,0.01,VWS V14.00,2013-02-10 02:00:00,
2013-02-09 18:30:00,52.1,43.7,30.11,West,272,0.0,1.0,73,0.00,,---,0.01,VWS V14.00,2013-02-10 02:30:00,
2013-02-09 19:00:00,50.5,42.9,30.11,West,272,0.0,0.0,75,0.00,,---,0.01,VWS V14.00,2013-02-10 03:00:00,
2013-02-09 19:30:00,49.4,42.5,30.12,West,272,0.0,0.0,77,0.00,,---,0.01,VWS V14.00,2013-02-10 03:30:00,
2013-02-09 20:00:00,48.1,42.2,30.13,West,272,0.0,1.0,80,0.00,,---,0.01,VWS V14.00,2013-02-10 04:00:00,
2013-02-09 20:30:00,47.5,41.7,30.14,West,272,0.0,1.0,80,0.00,,---,0.01,VWS V14.00,2013-02-10 04:30:00,
2013-02-09 21:00:00,47.4,41.2,30.15,West,274,0.0,1.0,79,0.00,,---,0.01,VWS V14.00,2013-02-10 05:00:00,
2013-02-09 21:30:00,46.8,40.6,30.15,NW,320,0.0,1.0,79,0.00,,---,0.01,VWS V14.00,2013-02-10 05:30:00,
2013-02-09 22:00:00,46.7,40.2,30.16,North,350,0.0,1.0,78,0.00,,---,0.01,VWS V14.00,2013-02-10 06:00:00,
2013-02-09 22:30:00,46.5,40.0,30.16,North,9,0.0,2.0,78,0.00,,---,0.01,VWS V14.00,2013-02-10 06:30:00,
2013-02-09 23:00:00,45.9,39.8,30.16,NNE,19,0.0,2.0,79,0.00,,---,0.01,VWS V14.00,2013-02-10 07:00:00,
2013-02-09 23:30:00,45.6,39.5,30.16,NE,39,0.0,2.0,79,0.00,,---,0.01,VWS V14.00,2013-02-10 07:30:00,